Time;durP1;ratioP1;P1;durP2;ratioP2;P2;SDS_P1;SDS_P2;PMS_P1;PMS_P2;Temp;Humidity;BMP_temperature;BMP_pressure;BME280_temperature;BME280_humidity;BME280_pressure;Samples;Min_cycle;Max_cycle;Signal;HPM_P1;HPM_P2
2022/07/23 00:00:26;;;;;;;6.50;2.20;;;20.00;72.20;;;;;;2082751;28;20044;-82
2022/07/23 00:01:28;;;;;;;7.13;2.10;;;20.00;72.30;;;;;;2091230;28;20044;-80
2022/07/23 00:02:29;;;;;;;9.35;2.35;;;20.00;72.50;;;;;;2081348;28;20029;-82
2022/07/23 00:03:30;;;;;;;8.15;2.67;;;20.00;72.60;;;;;;2080675;28;20779;-82
2022/07/23 00:04:30;;;;;;;9.33;2.30;;;20.00;72.50;;;;;;2091352;28;20036;-80
2022/07/23 00:05:31;;;;;;;9.67;2.67;;;20.00;72.50;;;;;;2082943;28;20068;-80
2022/07/23 00:06:32;;;;;;;7.57;2.70;;;20.00;72.50;;;;;;2075035;28;20388;-82
2022/07/23 00:07:33;;;;;;;7.07;2.97;;;20.00;72.30;;;;;;2090675;28;20302;-83
2022/07/23 00:08:34;;;;;;;7.10;2.80;;;20.00;72.30;;;;;;2082402;28;20129;-81
2022/07/23 00:09:35;;;;;;;5.05;2.38;;;20.00;72.30;;;;;;2091361;28;20075;-81
2022/07/23 00:10:36;;;;;;;8.70;2.67;;;20.00;72.40;;;;;;2082962;28;20026;-82
2022/07/23 00:11:36;;;;;;;8.07;3.23;;;20.00;72.40;;;;;;2083059;28;20033;-82
2022/07/23 00:12:38;;;;;;;11.63;2.87;;;20.00;72.30;;;;;;2083029;28;20026;-82
2022/07/23 00:13:39;;;;;;;5.90;2.83;;;19.90;72.20;;;;;;2085115;28;20064;-81
2022/07/23 00:14:39;;;;;;;6.83;2.80;;;19.90;72.30;;;;;;2083108;28;20360;-83
2022/07/23 00:15:40;;;;;;;9.90;2.80;;;20.00;72.30;;;;;;2082298;28;20025;-82
2022/07/23 00:16:41;;;;;;;7.80;2.87;;;19.90;72.40;;;;;;2082989;28;20022;-80
2022/07/23 00:17:42;;;;;;;7.60;2.53;;;20.00;72.50;;;;;;2082191;28;20484;-82
2022/07/23 00:18:42;;;;;;;6.87;2.47;;;19.90;72.20;;;;;;2091197;28;20017;-82
2022/07/23 00:19:43;;;;;;;8.13;2.90;;;19.90;72.10;;;;;;2099540;28;20036;-81
2022/07/23 00:20:44;;;;;;;6.87;2.67;;;19.90;72.20;;;;;;2082999;28;20049;-81
2022/07/23 00:21:45;;;;;;;7.70;2.67;;;19.90;72.10;;;;;;2082343;28;20033;-81
2022/07/23 00:22:55;;;;;;;7.00;3.17;;;19.90;72.10;;;;;;2091196;28;20055;-80
2022/07/23 00:23:56;;;;;;;6.53;3.00;;;19.90;72.10;;;;;;2089546;28;20036;-81
2022/07/23 00:24:56;;;;;;;7.63;2.92;;;19.90;72.10;;;;;;2099307;28;20277;-82
2022/07/23 00:25:58;;;;;;;8.77;3.63;;;19.90;72.20;;;;;;2093952;28;20021;-82
2022/07/23 00:26:59;;;;;;;5.13;2.95;;;19.90;72.10;;;;;;2085392;28;20033;-82
2022/07/23 00:28:00;;;;;;;5.15;3.00;;;19.90;72.10;;;;;;2090806;28;20039;-82
2022/07/23 00:29:02;;;;;;;7.15;3.17;;;19.90;72.00;;;;;;2087870;28;20360;-81
2022/07/23 00:30:03;;;;;;;7.43;2.70;;;19.90;72.00;;;;;;2074708;28;20279;-81
2022/07/23 00:31:04;;;;;;;6.22;2.67;;;19.90;71.90;;;;;;2088194;28;20021;-82
2022/07/23 00:32:05;;;;;;;8.30;3.05;;;19.90;72.00;;;;;;2086653;28;20507;-80
2022/07/23 00:33:07;;;;;;;12.65;3.35;;;19.90;71.80;;;;;;2079566;28;20029;-81
2022/07/23 00:34:08;;;;;;;7.03;2.80;;;19.90;71.90;;;;;;2084999;28;20024;-82
2022/07/23 00:35:09;;;;;;;9.38;3.08;;;19.90;71.80;;;;;;2090402;28;20357;-82
2022/07/23 00:36:09;;;;;;;7.57;3.33;;;19.90;72.00;;;;;;2074332;28;20036;-81
2022/07/23 00:37:10;;;;;;;5.70;2.80;;;19.80;72.00;;;;;;2073536;28;20057;-82
2022/07/23 00:38:11;;;;;;;7.70;3.60;;;19.80;72.00;;;;;;2089469;28;20024;-80
2022/07/23 00:39:12;;;;;;;7.27;3.50;;;19.90;72.10;;;;;;2088113;28;20029;-82
2022/07/23 00:40:13;;;;;;;6.13;2.77;;;19.80;72.10;;;;;;2081003;28;20029;-83
2022/07/23 00:41:14;;;;;;;8.20;3.20;;;19.80;71.80;;;;;;2077941;28;20346;-82
2022/07/23 00:42:15;;;;;;;9.33;2.97;;;19.80;71.70;;;;;;2074033;28;20045;-82
2022/07/23 00:43:15;;;;;;;8.60;3.93;;;19.80;71.90;;;;;;2089545;28;20265;-81
2022/07/23 00:44:26;;;;;;;5.00;2.90;;;19.80;72.10;;;;;;2081175;28;20025;-83
2022/07/23 00:45:28;;;;;;;7.80;3.40;;;19.70;71.90;;;;;;2077492;28;20105;-80
2022/07/23 00:46:29;;;;;;;7.20;3.28;;;19.70;71.80;;;;;;2082579;28;20285;-82
2022/07/23 00:47:30;;;;;;;5.50;2.70;;;19.70;71.60;;;;;;2074451;28;20026;-82
2022/07/23 00:48:31;;;;;;;7.55;2.55;;;19.70;71.60;;;;;;2073753;28;20049;-82
2022/07/23 00:49:32;;;;;;;5.80;2.75;;;19.70;71.60;;;;;;2089941;28;20450;-81
2022/07/23 00:50:33;;;;;;;8.60;3.10;;;19.70;71.60;;;;;;2080810;28;20021;-81
2022/07/23 00:51:34;;;;;;;6.43;3.17;;;19.70;71.80;;;;;;2087882;28;20472;-82
2022/07/23 00:52:36;;;;;;;4.97;2.77;;;19.70;71.80;;;;;;2082860;28;20022;-81
2022/07/23 00:53:37;;;;;;;6.10;2.67;;;19.70;71.70;;;;;;2074898;28;20032;-82
2022/07/23 00:54:39;;;;;;;7.45;2.78;;;19.70;71.80;;;;;;2085688;28;20280;-81
2022/07/23 00:55:40;;;;;;;6.43;2.95;;;19.70;71.70;;;;;;2082217;28;20044;-83
2022/07/23 00:56:45;;;;;;;8.17;3.23;;;19.70;71.70;;;;;;2087940;28;20028;-81
2022/07/23 00:57:47;;;;;;;7.35;2.80;;;19.60;71.60;;;;;;2098974;28;20025;-81
2022/07/23 00:58:48;;;;;;;4.78;2.85;;;19.60;71.30;;;;;;2090811;28;20284;-82
2022/07/23 00:59:49;;;;;;;8.75;3.00;;;19.60;71.50;;;;;;2085815;28;20485;-81
2022/07/23 01:00:50;;;;;;;8.50;2.93;;;19.60;71.60;;;;;;2082544;28;20017;-81
2022/07/23 01:01:51;;;;;;;7.50;3.13;;;19.60;71.50;;;;;;2079024;28;20175;-82
2022/07/23 01:02:52;;;;;;;12.60;3.20;;;19.60;71.50;;;;;;2091017;28;20033;-82
2022/07/23 01:03:52;;;;;;;5.73;2.90;;;19.60;71.20;;;;;;2093673;28;20474;-82
2022/07/23 01:04:54;;;;;;;8.13;2.85;;;19.60;71.30;;;;;;2082658;28;20785;-81
2022/07/23 01:05:55;;;;;;;8.38;3.45;;;19.60;71.40;;;;;;2071458;28;20018;-82
2022/07/23 01:06:56;;;;;;;11.07;2.90;;;19.60;71.40;;;;;;2071747;28;20041;-82
2022/07/23 01:07:57;;;;;;;8.65;3.22;;;19.60;71.20;;;;;;2082815;28;20033;-81
2022/07/23 01:08:58;;;;;;;11.48;3.33;;;19.60;71.30;;;;;;2090140;28;20352;-81
2022/07/23 01:10:00;;;;;;;7.72;3.03;;;19.60;71.40;;;;;;2082583;28;20060;-82
2022/07/23 01:11:00;;;;;;;4.45;2.70;;;19.50;71.20;;;;;;2074325;28;20380;-83
2022/07/23 01:12:01;;;;;;;7.60;2.67;;;19.50;71.40;;;;;;2077190;28;20044;-81
2022/07/23 01:13:08;;;;;;;5.63;2.67;;;19.50;70.80;;;;;;2077616;28;20045;-81
2022/07/23 01:14:14;;;;;;;5.05;2.65;;;19.50;70.70;;;;;;2081089;28;20022;-82
2022/07/23 01:15:16;;;;;;;5.75;2.92;;;19.50;71.00;;;;;;2076692;28;20285;-83
2022/07/23 01:16:16;;;;;;;8.05;3.00;;;19.50;70.90;;;;;;2080542;28;20271;-83
2022/07/23 01:17:17;;;;;;;5.63;3.13;;;19.50;70.80;;;;;;2074493;28;20102;-81
2022/07/23 01:18:18;;;;;;;6.73;2.43;;;19.50;70.70;;;;;;2074588;28;20432;-81
2022/07/23 01:19:19;;;;;;;8.23;3.08;;;19.50;70.50;;;;;;2074317;28;20113;-82
2022/07/23 01:20:21;;;;;;;7.10;2.92;;;19.50;70.70;;;;;;2081510;28;20041;-82
2022/07/23 01:21:22;;;;;;;8.48;2.95;;;19.50;70.70;;;;;;2082791;28;20041;-80
2022/07/23 01:22:28;;;;;;;5.60;2.70;;;19.50;70.80;;;;;;2085660;28;20101;-81
2022/07/23 01:23:29;;;;;;;6.43;3.00;;;19.50;70.80;;;;;;2083330;28;20044;-81
2022/07/23 01:24:32;;;;;;;10.43;3.30;;;19.50;71.10;;;;;;2081954;28;20274;-81
2022/07/23 01:25:37;;;;;;;11.43;3.42;;;19.50;70.80;;;;;;2083706;28;20294;-81
2022/07/23 01:26:43;;;;;;;5.10;2.65;;;19.50;70.80;;;;;;2082537;28;20281;-82
2022/07/23 01:27:44;;;;;;;6.18;2.83;;;19.50;70.80;;;;;;2073528;28;20717;-81
2022/07/23 01:28:45;;;;;;;6.57;2.80;;;19.50;70.80;;;;;;2073592;28;20247;-82
2022/07/23 01:29:46;;;;;;;9.57;2.97;;;19.50;70.80;;;;;;2066332;28;20295;-79
2022/07/23 01:30:52;;;;;;;6.30;2.42;;;19.40;70.80;;;;;;2071794;28;20026;-83
2022/07/23 01:31:52;;;;;;;6.88;3.05;;;19.40;70.70;;;;;;2086995;28;20585;-82
2022/07/23 01:32:54;;;;;;;8.23;2.60;;;19.40;70.80;;;;;;2088656;28;20016;-83
2022/07/23 01:33:56;;;;;;;16.20;3.15;;;19.40;70.90;;;;;;2082620;28;20044;-83
2022/07/23 01:34:57;;;;;;;5.93;2.80;;;19.40;70.80;;;;;;2085254;28;20036;-82
2022/07/23 01:35:57;;;;;;;8.50;3.60;;;19.40;70.80;;;;;;2090055;28;20391;-82
2022/07/23 01:36:59;;;;;;;;;;;19.40;70.80;;;;;;2099199;28;20577;-83
2022/07/23 01:38:00;;;;;;;5.15;2.78;;;19.40;70.90;;;;;;2074520;28;20004;-82
2022/07/23 01:39:03;;;;;;;6.07;3.03;;;19.30;70.70;;;;;;2083494;28;20032;-82
2022/07/23 01:40:05;;;;;;;6.55;3.17;;;19.40;70.90;;;;;;2099016;28;20470;-81
2022/07/23 01:41:06;;;;;;;7.72;2.70;;;19.30;70.40;;;;;;2082560;28;20345;-82
2022/07/23 01:42:07;;;;;;;6.63;3.25;;;19.30;70.50;;;;;;2081804;28;20625;-82
2022/07/23 01:43:08;;;;;;;6.40;2.93;;;19.30;70.40;;;;;;2074193;28;20026;-82
2022/07/23 01:44:10;;;;;;;6.90;2.65;;;19.30;70.40;;;;;;2085261;28;20625;-83
2022/07/23 01:45:14;;;;;;;4.50;2.35;;;19.30;70.30;;;;;;2098453;28;20399;-82
2022/07/23 01:46:20;;;;;;;4.22;2.58;;;19.30;70.10;;;;;;2091181;28;20270;-82
2022/07/23 01:47:23;;;;;;;6.68;2.83;;;19.30;70.20;;;;;;2090674;28;20258;-82
2022/07/23 01:48:27;;;;;;;8.02;3.00;;;19.30;70.30;;;;;;2082377;28;20262;-83
2022/07/23 01:49:57;;;;;;;6.53;2.35;;;19.30;70.40;;;;;;2057893;28;20711;-82
2022/07/23 01:51:16;;;;;;;4.85;2.70;;;19.30;70.30;;;;;;2067988;28;20354;-81
2022/07/23 01:52:18;;;;;;;6.78;2.80;;;19.30;70.50;;;;;;2092059;28;20277;-82
2022/07/23 01:53:23;;;;;;;5.20;2.72;;;19.30;70.30;;;;;;2088017;28;20316;-83
2022/07/23 01:54:24;;;;;;;8.15;3.08;;;19.30;70.10;;;;;;2082270;28;20286;-83
2022/07/23 01:55:25;;;;;;;6.55;2.92;;;19.30;70.30;;;;;;2081860;28;20021;-83
2022/07/23 01:56:26;;;;;;;5.83;3.07;;;19.20;70.30;;;;;;2094346;28;20364;-82
2022/07/23 01:57:27;;;;;;;6.65;2.67;;;19.30;70.50;;;;;;2090617;28;20740;-83
2022/07/23 01:58:28;;;;;;;5.93;2.60;;;19.30;70.60;;;;;;2089051;28;20056;-83
2022/07/23 01:59:29;;;;;;;11.27;2.63;;;19.30;70.30;;;;;;2074232;28;20099;-82
2022/07/23 02:00:30;;;;;;;6.95;2.90;;;19.30;70.30;;;;;;2075586;28;20175;-83
2022/07/23 02:01:31;;;;;;;5.78;2.85;;;19.20;70.10;;;;;;2082391;28;20403;-82
2022/07/23 02:02:32;;;;;;;5.93;3.00;;;19.30;70.30;;;;;;2076717;28;20076;-83
2022/07/23 02:03:33;;;;;;;6.17;3.23;;;19.20;70.30;;;;;;2074262;28;20470;-82
2022/07/23 02:04:36;;;;;;;5.20;2.87;;;19.30;70.50;;;;;;2082238;28;20036;-82
2022/07/23 02:05:37;;;;;;;4.68;2.88;;;19.30;70.50;;;;;;2074268;28;20128;-82
2022/07/23 02:06:38;;;;;;;7.68;3.10;;;19.20;70.30;;;;;;2074253;28;20270;-83
2022/07/23 02:07:38;;;;;;;8.38;2.90;;;19.20;70.20;;;;;;2079045;28;20656;-82
2022/07/23 02:08:39;;;;;;;7.33;3.00;;;19.20;70.20;;;;;;2081814;28;20026;-81
2022/07/23 02:09:40;;;;;;;8.53;3.20;;;19.20;70.20;;;;;;2104557;28;20157;-81
2022/07/23 02:10:41;;;;;;;6.18;2.67;;;19.20;70.10;;;;;;2096920;28;20024;-81
2022/07/23 02:11:43;;;;;;;5.67;2.57;;;19.20;70.10;;;;;;2090652;28;20057;-82
2022/07/23 02:12:44;;;;;;;6.75;3.25;;;19.20;70.10;;;;;;2082299;28;20456;-81
2022/07/23 02:13:44;;;;;;;5.33;2.70;;;19.20;70.20;;;;;;2066072;28;20054;-82
2022/07/23 02:14:45;;;;;;;4.43;2.70;;;19.20;70.20;;;;;;2080889;28;20162;-83
2022/07/23 02:15:47;;;;;;;9.27;3.20;;;19.20;69.80;;;;;;2086710;28;20068;-81
2022/07/23 02:16:48;;;;;;;6.85;2.70;;;19.20;69.70;;;;;;2081884;28;20076;-83
2022/07/23 02:17:49;;;;;;;6.18;3.47;;;19.20;70.00;;;;;;2089384;28;20254;-82
2022/07/23 02:18:50;;;;;;;5.65;3.05;;;19.20;69.90;;;;;;2097821;28;20056;-81
2022/07/23 02:19:51;;;;;;;6.07;3.23;;;19.20;69.90;;;;;;2097841;28;20107;-81
2022/07/23 02:20:51;;;;;;;8.18;2.90;;;19.20;70.10;;;;;;2097223;28;20044;-81
2022/07/23 02:21:54;;;;;;;6.67;2.90;;;19.20;70.00;;;;;;2082174;28;20112;-82
2022/07/23 02:22:55;;;;;;;8.20;2.90;;;19.20;70.00;;;;;;2096100;28;20032;-81
2022/07/23 02:23:56;;;;;;;7.25;3.30;;;19.20;70.00;;;;;;2083986;28;20263;-81
2022/07/23 02:24:57;;;;;;;6.00;3.33;;;19.20;70.00;;;;;;2083004;28;20049;-81
2022/07/23 02:25:58;;;;;;;6.33;2.70;;;19.20;70.00;;;;;;2084263;28;20124;-83
2022/07/23 02:26:59;;;;;;;7.90;3.77;;;19.20;69.80;;;;;;2092067;28;20035;-82
2022/07/23 02:28:01;;;;;;;5.03;2.80;;;19.20;69.90;;;;;;2088528;28;20025;-83
2022/07/23 02:29:02;;;;;;;6.93;2.83;;;19.20;70.20;;;;;;2091309;28;20159;-81
2022/07/23 02:30:04;;;;;;;10.10;2.80;;;19.10;70.10;;;;;;2083838;28;20060;-83
2022/07/23 02:31:06;;;;;;;;;;;19.10;70.20;;;;;;2091188;28;20061;-83
2022/07/23 02:32:08;;;;;;;6.80;2.88;;;19.10;70.20;;;;;;2075722;28;20019;-82
2022/07/23 02:33:09;;;;;;;7.87;3.20;;;19.10;70.20;;;;;;2080011;28;20029;-83
2022/07/23 02:34:11;;;;;;;6.53;3.03;;;19.10;70.30;;;;;;2084852;28;20021;-83
2022/07/23 02:35:12;;;;;;;5.63;3.33;;;19.10;70.40;;;;;;2083265;28;20033;-81
2022/07/23 02:36:13;;;;;;;7.50;2.90;;;19.10;70.40;;;;;;2076976;28;20045;-82
2022/07/23 02:37:15;;;;;;;6.32;2.90;;;19.10;70.40;;;;;;2092464;28;20040;-83
2022/07/23 02:38:16;;;;;;;10.57;3.22;;;19.10;70.40;;;;;;2092064;28;20253;-82
2022/07/23 02:39:17;;;;;;;5.63;2.90;;;19.10;70.40;;;;;;2075583;28;20029;-82
2022/07/23 02:40:18;;;;;;;5.30;2.90;;;19.10;70.40;;;;;;2083893;28;20033;-83
2022/07/23 02:41:19;;;;;;;6.75;3.45;;;19.10;70.40;;;;;;2077290;28;20749;-83
2022/07/23 02:42:20;;;;;;;5.37;2.87;;;19.10;70.50;;;;;;2083364;28;20127;-82
2022/07/23 02:43:22;;;;;;;5.78;2.42;;;19.10;70.60;;;;;;2080165;28;20614;-82
2022/07/23 02:44:23;;;;;;;4.65;2.88;;;19.10;70.60;;;;;;2083910;28;20357;-82
2022/07/23 02:45:26;;;;;;;7.65;3.13;;;19.10;70.40;;;;;;2084005;28;20733;-81
2022/07/23 02:46:28;;;;;;;;;;;19.00;70.50;;;;;;2084669;28;20302;-82
2022/07/23 02:47:31;;;;;;;8.48;3.28;;;19.00;70.40;;;;;;2075847;28;19956;-81
2022/07/23 02:48:33;;;;;;;6.32;2.95;;;19.00;71.00;;;;;;2072711;28;20267;-82
2022/07/23 02:49:34;;;;;;;10.65;3.20;;;19.00;70.30;;;;;;2075479;28;20274;-82
2022/07/23 02:50:38;;;;;;;6.90;2.95;;;19.00;70.40;;;;;;2083969;28;20296;-83
2022/07/23 02:51:39;;;;;;;6.50;3.80;;;19.00;70.40;;;;;;2078103;28;20255;-82
2022/07/23 02:52:41;;;;;;;7.25;3.13;;;19.00;70.30;;;;;;2083889;28;20120;-81
2022/07/23 02:53:42;;;;;;;5.53;3.00;;;19.00;70.40;;;;;;2090443;28;20589;-82
2022/07/23 02:54:44;;;;;;;6.72;3.10;;;19.00;70.30;;;;;;2075672;28;20026;-81
2022/07/23 02:55:47;;;;;;;6.30;2.80;;;19.00;70.00;;;;;;2075689;28;20037;-82
2022/07/23 02:56:50;;;;;;;7.22;3.20;;;19.00;70.40;;;;;;2083673;28;20692;-84
2022/07/23 02:57:51;;;;;;;7.50;3.08;;;18.90;70.30;;;;;;2083807;28;20018;-83
2022/07/23 02:58:52;;;;;;;7.03;3.13;;;19.00;70.30;;;;;;2083704;28;20332;-83
2022/07/23 02:59:53;;;;;;;7.13;3.10;;;19.00;70.30;;;;;;2083344;28;20429;-82
2022/07/23 03:00:53;;;;;;;9.30;3.40;;;18.90;70.30;;;;;;2083596;28;20108;-82
2022/07/23 03:01:54;;;;;;;7.18;3.30;;;18.90;70.20;;;;;;2076718;28;20113;-82
2022/07/23 03:02:55;;;;;;;10.00;3.03;;;19.00;70.30;;;;;;2075881;28;20030;-83
2022/07/23 03:03:56;;;;;;;6.53;3.37;;;18.90;70.20;;;;;;2080196;28;20021;-84
2022/07/23 03:04:57;;;;;;;7.50;3.30;;;18.90;70.20;;;;;;2075514;28;20120;-83
2022/07/23 03:05:58;;;;;;;7.05;2.92;;;18.90;70.20;;;;;;2090342;28;20029;-83
2022/07/23 03:06:59;;;;;;;6.07;3.10;;;18.90;69.90;;;;;;2083522;28;20017;-83
2022/07/23 03:08:00;;;;;;;6.45;3.13;;;18.90;69.80;;;;;;2083545;28;20362;-82
2022/07/23 03:09:02;;;;;;;6.63;3.08;;;18.90;70.10;;;;;;2087431;28;20036;-83
2022/07/23 03:10:03;;;;;;;6.43;3.03;;;18.90;70.20;;;;;;2092125;28;20032;-83
2022/07/23 03:11:04;;;;;;;5.47;2.90;;;18.90;70.20;;;;;;2083315;28;20123;-81
2022/07/23 03:12:05;;;;;;;8.47;3.53;;;18.90;70.10;;;;;;2075486;28;20360;-82
2022/07/23 03:13:06;;;;;;;6.50;3.03;;;18.90;70.10;;;;;;2075532;28;20113;-83
2022/07/23 03:14:07;;;;;;;6.47;3.03;;;18.90;70.20;;;;;;2079672;28;20072;-83
2022/07/23 03:15:10;;;;;;;7.30;3.15;;;18.90;70.20;;;;;;2091005;28;20029;-83
2022/07/23 03:16:11;;;;;;;4.80;3.13;;;18.90;70.10;;;;;;2082581;28;20736;-82
2022/07/23 03:17:12;;;;;;;6.57;2.97;;;18.90;70.10;;;;;;2091881;28;20032;-82
2022/07/23 03:18:13;;;;;;;6.07;2.90;;;18.90;70.10;;;;;;2091741;28;20074;-82
2022/07/23 03:19:13;;;;;;;6.20;2.67;;;18.90;70.10;;;;;;2075343;28;20029;-82
2022/07/23 03:20:15;;;;;;;7.07;2.85;;;18.90;70.10;;;;;;2075625;28;20121;-83
2022/07/23 03:21:17;;;;;;;5.63;3.42;;;18.90;69.50;;;;;;2076272;28;20259;-82
2022/07/23 03:22:17;;;;;;;5.78;2.80;;;18.90;70.00;;;;;;2091022;28;20035;-82
2022/07/23 03:23:18;;;;;;;5.17;2.63;;;18.90;70.00;;;;;;2083657;28;20044;-83
2022/07/23 03:24:19;;;;;;;6.33;3.03;;;18.90;69.70;;;;;;2092563;28;20021;-83
2022/07/23 03:25:20;;;;;;;3.43;2.20;;;18.90;69.90;;;;;;2083529;28;20025;-82
2022/07/23 03:26:25;;;;;;;4.38;2.30;;;18.90;70.00;;;;;;2075446;28;20368;-83
2022/07/23 03:27:28;;;;;;;3.58;2.30;;;18.90;70.00;;;;;;2083928;28;20427;-82
2022/07/23 03:28:29;;;;;;;5.55;2.60;;;18.90;70.00;;;;;;2083131;28;20263;-81
2022/07/23 03:29:32;;;;;;;5.93;2.70;;;18.90;69.90;;;;;;2094236;28;20281;-82
2022/07/23 03:30:33;;;;;;;5.47;2.60;;;18.80;69.90;;;;;;2083653;28;20030;-83
2022/07/23 03:31:35;;;;;;;5.03;2.50;;;18.90;69.90;;;;;;2075496;28;20262;-82
2022/07/23 03:32:36;;;;;;;5.10;2.73;;;18.90;70.80;;;;;;2080551;28;20152;-82
2022/07/23 03:33:37;;;;;;;4.93;2.50;;;18.80;69.90;;;;;;2082760;28;20017;-83
2022/07/23 03:34:38;;;;;;;5.00;2.20;;;18.80;69.80;;;;;;2088695;28;20216;-82
2022/07/23 03:35:39;;;;;;;4.03;2.50;;;18.80;69.80;;;;;;2074511;28;20352;-82
2022/07/23 03:36:51;;;;;;;4.00;2.28;;;18.90;70.00;;;;;;2078467;28;20030;-84
2022/07/23 03:37:52;;;;;;;4.33;2.73;;;18.80;69.70;;;;;;2079123;28;20132;-82
2022/07/23 03:38:53;;;;;;;3.80;2.50;;;18.80;69.50;;;;;;2075334;28;20038;-82
2022/07/23 03:39:54;;;;;;;4.32;2.28;;;18.80;70.30;;;;;;2098345;28;20046;-82
2022/07/23 03:40:55;;;;;;;4.67;2.30;;;18.80;69.60;;;;;;2090207;28;20043;-82
2022/07/23 03:41:56;;;;;;;4.60;2.40;;;18.80;69.60;;;;;;2077430;28;20029;-83
2022/07/23 03:42:57;;;;;;;5.63;2.30;;;18.80;69.50;;;;;;2091472;28;20021;-82
2022/07/23 03:43:58;;;;;;;4.03;2.73;;;18.80;69.40;;;;;;2072667;28;20025;-82
2022/07/23 03:44:58;;;;;;;4.60;2.30;;;18.80;69.50;;;;;;2081429;28;20091;-83
2022/07/23 03:45:59;;;;;;;4.43;2.43;;;18.80;69.50;;;;;;2090413;28;20072;-80
2022/07/23 03:47:00;;;;;;;3.90;2.30;;;18.80;69.60;;;;;;2075064;28;20514;-82
2022/07/23 03:48:01;;;;;;;4.70;2.17;;;18.80;69.70;;;;;;2078691;28;20464;-81
2022/07/23 03:49:03;;;;;;;;;;;18.80;69.80;;;;;;2074808;28;20033;-82
2022/07/23 03:50:04;;;;;;;5.03;2.50;;;18.80;69.70;;;;;;2089839;28;19944;-83
2022/07/23 03:51:07;;;;;;;8.20;2.38;;;18.70;69.80;;;;;;2084638;28;20183;-82
2022/07/23 03:52:08;;;;;;;3.55;2.13;;;18.70;69.80;;;;;;2091483;28;20266;-82
2022/07/23 03:53:09;;;;;;;2.73;2.03;;;18.80;69.70;;;;;;2083144;28;20107;-82
2022/07/23 03:54:10;;;;;;;4.27;2.07;;;18.70;69.80;;;;;;2074996;28;20022;-81
2022/07/23 03:55:11;;;;;;;4.43;2.40;;;18.80;69.60;;;;;;2080627;28;20090;-82
2022/07/23 03:56:12;;;;;;;5.30;2.35;;;18.70;69.60;;;;;;2091375;28;20044;-81
2022/07/23 03:57:12;;;;;;;3.75;2.25;;;18.70;69.60;;;;;;2083175;28;20030;-81
2022/07/23 03:58:13;;;;;;;4.77;2.40;;;18.70;69.40;;;;;;2083211;28;20035;-82
2022/07/23 03:59:14;;;;;;;9.23;2.50;;;18.70;69.50;;;;;;2083352;28;20408;-81
2022/07/23 04:00:15;;;;;;;4.22;2.60;;;18.70;69.60;;;;;;2084407;28;20025;-83
2022/07/23 04:01:17;;;;;;;;;;;18.70;69.40;;;;;;2086842;28;20478;-83
2022/07/23 04:02:18;;;;;;;5.60;2.60;;;18.70;69.40;;;;;;2093055;28;19912;-83
2022/07/23 04:03:19;;;;;;;6.77;2.37;;;18.70;69.20;;;;;;2091316;28;20033;-82
2022/07/23 04:04:19;;;;;;;5.25;2.72;;;18.70;69.40;;;;;;2083247;28;20057;-80
2022/07/23 04:05:20;;;;;;;4.43;2.30;;;18.70;69.40;;;;;;2082920;28;20136;-82
2022/07/23 04:06:25;;;;;;;5.45;2.83;;;18.60;69.20;;;;;;2083391;28;20021;-81
2022/07/23 04:07:27;;;;;;;5.43;2.83;;;18.60;69.10;;;;;;2081184;28;20259;-82
2022/07/23 04:08:29;;;;;;;4.75;2.92;;;18.60;69.30;;;;;;2082266;28;20532;-82
2022/07/23 04:09:30;;;;;;;5.90;3.05;;;18.60;69.50;;;;;;2083289;28;20099;-81
2022/07/23 04:10:31;;;;;;;7.23;3.27;;;18.60;69.50;;;;;;2069770;28;20045;-81
2022/07/23 04:11:32;;;;;;;5.07;2.80;;;18.60;69.40;;;;;;2083059;28;20122;-82
2022/07/23 04:12:33;;;;;;;5.30;2.67;;;18.60;69.50;;;;;;2083119;28;20044;-82
2022/07/23 04:13:34;;;;;;;7.50;2.83;;;18.60;69.60;;;;;;2074839;28;20026;-80
2022/07/23 04:14:36;;;;;;;6.57;3.13;;;18.60;69.70;;;;;;2074830;28;20037;-83
2022/07/23 04:15:37;;;;;;;5.78;2.92;;;18.60;69.70;;;;;;2082642;28;20282;-83
2022/07/23 04:16:39;;;;;;;5.60;3.00;;;18.60;69.70;;;;;;2083126;28;20033;-82
2022/07/23 04:17:40;;;;;;;4.13;2.50;;;18.60;69.80;;;;;;2083120;28;20087;-81
2022/07/23 04:18:41;;;;;;;6.43;2.80;;;18.60;69.70;;;;;;2091045;28;20049;-80
2022/07/23 04:19:48;;;;;;;5.88;3.00;;;18.60;69.80;;;;;;2076706;28;20532;-82
2022/07/23 04:20:53;;;;;;;4.85;2.65;;;18.60;69.90;;;;;;2084325;28;20286;-82
2022/07/23 04:21:54;;;;;;;6.13;2.85;;;18.60;69.80;;;;;;2079558;28;21210;-81
2022/07/23 04:22:55;;;;;;;6.23;2.90;;;18.60;69.80;;;;;;2074926;28;20088;-83
2022/07/23 04:23:55;;;;;;;4.07;2.87;;;18.50;69.50;;;;;;2082894;28;20033;-82
2022/07/23 04:24:56;;;;;;;4.97;2.47;;;18.50;69.60;;;;;;2088637;28;20037;-82
2022/07/23 04:25:57;;;;;;;7.13;2.93;;;18.50;69.60;;;;;;2083095;28;20026;-81
2022/07/23 04:26:59;;;;;;;6.90;3.15;;;18.50;69.40;;;;;;2088160;28;20036;-81
2022/07/23 04:28:00;;;;;;;4.93;2.63;;;18.50;69.60;;;;;;2082941;28;20026;-81
2022/07/23 04:29:01;;;;;;;6.15;2.72;;;18.50;69.60;;;;;;2066280;28;20031;-81
2022/07/23 04:30:02;;;;;;;13.30;3.47;;;18.50;70.40;;;;;;2077034;28;20030;-83
2022/07/23 04:31:03;;;;;;;5.97;2.90;;;18.50;69.70;;;;;;2074854;28;20411;-81
2022/07/23 04:32:05;;;;;;;4.93;2.95;;;18.50;69.70;;;;;;2079711;28;20148;-82
2022/07/23 04:33:06;;;;;;;6.47;2.58;;;18.50;69.70;;;;;;2074859;28;20108;-81
2022/07/23 04:34:07;;;;;;;7.45;2.83;;;18.50;69.80;;;;;;2082801;28;20076;-81
2022/07/23 04:35:08;;;;;;;11.80;3.47;;;18.50;69.60;;;;;;2082267;28;20060;-81
2022/07/23 04:36:10;;;;;;;7.07;3.30;;;18.50;70.30;;;;;;2082845;28;20017;-82
2022/07/23 04:37:10;;;;;;;9.37;2.73;;;18.50;69.60;;;;;;2079753;28;20057;-81
2022/07/23 04:38:11;;;;;;;6.57;2.75;;;18.50;69.70;;;;;;2082509;28;20401;-80
2022/07/23 04:39:13;;;;;;;8.55;2.80;;;18.50;69.60;;;;;;2082817;28;20026;-81
2022/07/23 04:40:14;;;;;;;9.45;3.28;;;18.50;69.80;;;;;;2085231;28;20041;-83
2022/07/23 04:41:14;;;;;;;6.00;3.20;;;18.50;69.90;;;;;;2091136;28;20028;-83
2022/07/23 04:42:15;;;;;;;7.37;2.90;;;18.50;69.80;;;;;;2086940;28;20048;-82
2022/07/23 04:43:16;;;;;;;5.97;2.70;;;18.50;69.80;;;;;;2082819;28;20456;-82
2022/07/23 04:44:22;;;;;;;5.78;3.05;;;18.50;69.80;;;;;;2082847;28;20403;-81
2022/07/23 04:45:24;;;;;;;7.68;3.45;;;18.50;69.80;;;;;;2076414;28;20279;-82
2022/07/23 04:46:25;;;;;;;8.60;3.33;;;18.50;69.60;;;;;;2090701;28;20041;-83
2022/07/23 04:47:26;;;;;;;6.50;2.80;;;18.50;69.70;;;;;;2082888;28;20276;-82
2022/07/23 04:48:27;;;;;;;5.77;2.60;;;18.50;69.70;;;;;;2068571;28;20068;-81
2022/07/23 04:49:34;;;;;;;8.15;2.60;;;18.50;69.90;;;;;;2069040;28;20027;-80
2022/07/23 04:50:35;;;;;;;7.95;3.10;;;18.50;69.90;;;;;;2082972;28;20866;-83
2022/07/23 04:51:38;;;;;;;6.65;2.67;;;18.50;69.80;;;;;;2082774;28;20036;-83
2022/07/23 04:52:38;;;;;;;5.38;3.03;;;18.50;69.90;;;;;;2072950;28;20748;-80
2022/07/23 04:53:39;;;;;;;10.63;3.20;;;18.50;70.00;;;;;;2082800;28;20037;-82
2022/07/23 04:54:40;;;;;;;5.60;3.07;;;18.50;69.80;;;;;;2091074;28;20044;-83
2022/07/23 04:55:41;;;;;;;6.07;3.60;;;18.50;69.90;;;;;;2082044;28;20021;-83
2022/07/23 04:56:42;;;;;;;9.23;3.30;;;18.50;69.90;;;;;;2074723;28;20407;-82
2022/07/23 04:57:43;;;;;;;5.80;2.88;;;18.50;70.00;;;;;;2068440;28;20264;-82
2022/07/23 04:58:44;;;;;;;5.27;2.77;;;18.50;70.10;;;;;;2083499;28;20456;-84
2022/07/23 04:59:45;;;;;;;7.72;3.40;;;18.50;70.10;;;;;;2099275;28;20331;-82
2022/07/23 05:00:47;;;;;;;7.15;3.10;;;18.50;70.30;;;;;;2096804;28;20028;-83
2022/07/23 05:01:48;;;;;;;8.68;3.17;;;18.50;70.40;;;;;;2097385;28;20385;-81
2022/07/23 05:02:49;;;;;;;5.93;3.13;;;18.50;70.40;;;;;;2082659;28;20047;-81
2022/07/23 05:03:50;;;;;;;8.57;3.20;;;18.50;70.40;;;;;;2078974;28;20026;-83
2022/07/23 05:04:50;;;;;;;8.57;3.47;;;18.50;70.40;;;;;;2091032;28;20025;-81
2022/07/23 05:05:51;;;;;;;10.63;3.70;;;18.50;70.40;;;;;;2081021;28;20179;-82
2022/07/23 05:06:53;;;;;;;7.70;3.28;;;18.50;70.40;;;;;;2082647;28;20117;-82
2022/07/23 05:07:57;;;;;;;6.30;2.63;;;18.50;70.30;;;;;;2066538;28;20525;-81
2022/07/23 05:08:58;;;;;;;6.40;3.58;;;18.50;70.10;;;;;;2066438;28;20037;-82
2022/07/23 05:09:59;;;;;;;9.13;3.00;;;18.50;70.00;;;;;;2074454;28;20357;-83
2022/07/23 05:11:00;;;;;;;6.65;2.92;;;18.50;70.10;;;;;;2081453;28;20021;-82
2022/07/23 05:12:03;;;;;;;9.25;2.85;;;18.50;70.20;;;;;;2082990;28;20034;-83
2022/07/23 05:13:05;;;;;;;9.27;3.17;;;18.40;70.00;;;;;;2082548;28;20263;-81
2022/07/23 05:14:06;;;;;;;6.82;3.53;;;18.40;70.00;;;;;;2078905;28;20732;-82
2022/07/23 05:15:08;;;;;;;5.00;2.70;;;18.40;70.10;;;;;;2073871;28;20191;-81
2022/07/23 05:16:09;;;;;;;7.25;2.67;;;18.40;70.20;;;;;;2090138;28;20029;-81
2022/07/23 05:17:10;;;;;;;11.55;3.10;;;18.40;70.30;;;;;;2082596;28;20483;-82
2022/07/23 05:18:11;;;;;;;8.93;2.88;;;18.50;70.30;;;;;;2087814;28;20033;-82
2022/07/23 05:19:13;;;;;;;8.73;2.97;;;18.40;70.30;;;;;;2086993;28;20013;-82
2022/07/23 05:20:14;;;;;;;7.28;3.13;;;18.50;70.40;;;;;;2075668;28;20080;-83
2022/07/23 05:21:15;;;;;;;5.10;2.83;;;18.50;70.40;;;;;;2081662;28;20127;-81